Concan, Texas
Current Conditions -  °F | °C
As of 4:35 PM on Friday 31 Oct 2014 (Local Time) from KUVA Reporting Station
Clear Clear  
Wind Chill: 78°   Ceiling: Unl
Heat Index: 78°   Visibility: 10mi
Dew Point: 40°   Wind: 7mph
Humidity: 26%   Direction: 60°ENE
Pressure: 30.23"   Gusts: NA
Location:  29.5°N, 99.71°W
Report Text: KUVA 312135Z AUTO 06006KT 10SM CLR 26/04 A3023 RMK AO2 T02550044
Loading
Personal Weather Stations






























Interactive Weather Map
Tropical Storm Tracking
New forecast layout! Learn more

10-Day Weather Forecast

Advertisements
Track Severe Weather on mobile